METAR Data
IDs: Format: Raw Decoded Include TAF

Data at: 0732 UTC 28 Sep 2022

METAR for:KGXY (Greeley/Weld Cnty Ar, CO, US)
Text:KGXY 280656Z 13005KT 10SM CLR 11/07 A3032 RMK AO2 SLP244 T01060072 402440067 $
Temperature: 10.6°C ( 51°F)
Dewpoint: 7.2°C ( 45°F) [RH = 79%]
Pressure (altimeter):30.32 inches Hg (1026.8 mb) [Sea level pressure: 1024.4 mb]
Winds:from the SE (130 degrees) at 6 MPH (5 knots; 2.6 m/s)
Visibility:10 or more sm (16+ km)
Ceiling:at least 12,000 feet AGL
Clouds:sky clear below 12,000 feet AGL
QC Flag:SOME DATA ABOVE MAY BE INACCURATE!!!"$" is an indication the sensor requires maintenance.